KVPC

Details ICAO KVPC (VPC)
Name CARTERSVILLE
Region United States
Timezone America/New_York (UTC-5.0)
Plans Departing 10
Arriving 7
Stats Elevation 759 ft / 231 m (AMSL)
Location 34.123147° -84.848707°
Runways 1
Magnetic Variation 4.870° W
Sunrise 2017-12-14 12:38:40 UTC / 2017-12-14 07:38:40 Local
Sunset 2017-12-14 22:32:30 UTC / 2017-12-14 17:32:30 Local
Advertisement - Login to hide

Runways

ID Width Length Bearing (true) Bearing (mag) Surface Threshold Offset Overrun Length
01 100 ft / 30 m 5,776 ft / 1,761 m 3.47° 8.34° Asphalt 740 ft / 226 m 0 ft / 0 m
19 100 ft / 30 m 5,776 ft / 1,761 m 183.47° 188.34° Asphalt 0 ft / 0 m 0 ft / 0 m

Approach Navaids

Runway Type Ident Frequency Range Bearing (true) Bearing (mag) Slope Elevation
19 Localiser IVPC 110.35 MHz 18 nm / 33 km 183.47° 188.34° - 759 ft / 231 m (AMSL)
19 DME IVPC 110.35 MHz 18 nm / 33 km - - - 759 ft / 231 m (AMSL)

Map

Weather


0- 5 10 15 20 25 30 35+ Temperature / ° C

Clouds and Precipitation
Forecast for 2017-12-14 18:00 UTC. Updated 6 minutes ago

Ground ~20,000 ft ~40,000 ft Winds

METAR

KVPC 141253Z AUTO 00000KT 10SM CLR 00/M02 A2992 RMK AO2 SLP130 T00001017 $

TAF

Not found

Frequencies

Recorded 120.52 MHz ASOS
Approach 121.00 MHz ATLANTA APP/DEP
Unicom 123.05 MHz CTAF/UNICOM
Warning: Do not use this data for real-world aviation or navigation. No guarantee of current accuracy is given.